Time;durP1;ratioP1;P1;durP2;ratioP2;P2;SDS_P1;SDS_P2;PMS_P1;PMS_P2;Temp;Humidity;BMP_temperature;BMP_pressure;BME280_temperature;BME280_humidity;BME280_pressure;Samples;Min_cycle;Max_cycle;Signal;HPM_P1;HPM_P2
2023/03/05 00:01:38;;;;;;;34.75;18.85;;;;;;;7.86;76.49;97240.09;10199717;28;20073;-53
2023/03/05 00:06:37;;;;;;;;;;;;;;;7.91;76.11;97233.19;10203977;28;20063;-53
2023/03/05 00:11:36;;;;;;;39.25;20.23;;;;;;;7.92;76.27;97234.06;10213418;28;20011;-54
2023/03/05 00:16:35;;;;;;;37.63;20.75;;;;;;;7.88;76.82;97233.19;10215373;28;20051;-53
2023/03/05 00:21:39;;;;;;;30.08;18.50;;;;;;;7.85;77.15;97222.88;10216031;28;20564;-53
2023/03/05 00:26:38;;;;;;;34.45;19.20;;;;;;;7.85;76.92;97212.53;10216908;28;20164;-53
2023/03/05 00:31:37;;;;;;;;;;;;;;;7.78;76.46;97203.91;10205984;28;20074;-53
2023/03/05 00:36:46;;;;;;;29.98;17.30;;;;;;;7.70;75.88;97197.00;10213656;28;19932;-53
2023/03/05 00:41:45;;;;;;;35.85;20.17;;;;;;;7.58;76.07;97188.38;10245685;28;20504;-53
2023/03/05 00:46:44;;;;;;;39.65;22.27;;;;;;;7.44;76.17;97187.50;10245354;28;20074;-53
2023/03/05 00:51:43;;;;;;;40.53;22.52;;;;;;;7.04;76.67;97139.19;10206318;28;20062;-53
2023/03/05 00:56:42;;;;;;;40.25;23.08;;;;;;;7.18;76.83;97177.94;10204796;28;20030;-53
2023/03/05 01:01:41;;;;;;;41.58;24.45;;;;;;;7.05;76.79;97178.75;10204919;28;20531;-53
2023/03/05 01:06:43;;;;;;;45.58;26.48;;;;;;;6.93;77.86;97192.44;10203571;28;20452;-53
2023/03/05 01:11:42;;;;;;;57.15;31.73;;;;;;;6.62;79.18;97175.97;10204623;28;20078;-53
2023/03/05 01:16:41;;;;;;;61.78;35.33;;;;;;;6.45;79.45;97187.94;10206671;28;20505;-53
2023/03/05 01:21:41;;;;;;;;;;;;;;;6.46;79.85;97189.63;10208399;28;20078;-53
2023/03/05 01:26:39;;;;;;;53.23;28.17;;;;;;;6.45;79.74;97198.25;10205153;28;19968;-52
2023/03/05 01:31:38;;;;;;;43.47;24.65;;;;;;;6.07;79.02;97136.97;10207159;28;20103;-53
2023/03/05 01:36:40;;;;;;;41.53;24.67;;;;;;;6.30;79.28;97180.94;10214421;28;20117;-54
2023/03/05 01:41:39;;;;;;;46.40;26.77;;;;;;;5.59;79.09;97056.00;10246851;28;20080;-53
2023/03/05 01:46:38;;;;;;;47.15;26.73;;;;;;;6.42;79.44;97193.03;10245564;28;20109;-53
2023/03/05 01:51:43;;;;;;;51.05;28.45;;;;;;;6.37;79.61;97193.00;10207385;28;20062;-54
2023/03/05 01:56:44;;;;;;;54.70;30.55;;;;;;;6.10;80.55;97149.91;10206064;28;20114;-53
2023/03/05 02:01:47;;;;;;;55.70;31.73;;;;;;;6.38;81.35;97200.75;10206437;28;20066;-54
2023/03/05 02:06:47;;;;;;;55.55;33.55;;;;;;;6.44;81.23;97196.50;10244302;28;20545;-54
2023/03/05 02:11:46;;;;;;;56.42;32.80;;;;;;;6.45;81.46;97191.34;10245484;28;20070;-54
2023/03/05 02:16:45;;;;;;;54.45;30.50;;;;;;;6.50;81.87;97175.91;10205496;28;20493;-53
2023/03/05 02:21:47;;;;;;;54.67;30.42;;;;;;;6.52;80.88;97190.53;10206907;28;20548;-53
2023/03/05 02:26:46;;;;;;;49.65;28.90;;;;;;;6.42;81.09;97167.25;10205162;28;20962;-53
2023/03/05 02:31:45;;;;;;;44.72;26.58;;;;;;;6.49;80.35;97179.34;10205323;28;20675;-53
2023/03/05 02:36:44;;;;;;;50.22;29.02;;;;;;;6.39;81.11;97193.88;10214887;28;20712;-54
2023/03/05 02:41:43;;;;;;;47.80;25.63;;;;;;;6.10;81.53;97161.06;10244882;28;20045;-53
2023/03/05 02:46:42;;;;;;;37.38;20.83;;;;;;;6.10;82.68;97193.69;10244674;28;20027;-53
2023/03/05 02:51:41;;;;;;;41.03;21.63;;;;;;;5.98;82.63;97197.91;10205224;28;20101;-53
2023/03/05 02:56:42;;;;;;;45.50;23.45;;;;;;;6.05;82.66;97196.25;10204340;28;20042;-54
2023/03/05 03:01:41;;;;;;;46.30;27.92;;;;;;;5.98;82.13;97200.47;10243348;28;20074;-53
2023/03/05 03:06:40;;;;;;;55.65;35.70;;;;;;;5.97;81.95;97193.56;10242539;28;20129;-53
2023/03/05 03:11:38;;;;;;;54.95;34.08;;;;;;;6.03;81.78;97194.50;10203611;28;20146;-54
2023/03/05 03:16:37;;;;;;;45.38;27.05;;;;;;;6.14;81.12;97208.31;10244609;28;20140;-53
2023/03/05 03:21:37;;;;;;;42.60;25.27;;;;;;;6.21;80.70;97198.91;10243693;28;20037;-54
2023/03/05 03:26:36;;;;;;;43.85;20.40;;;;;;;6.15;80.64;97194.59;10243519;28;20531;-53
2023/03/05 03:31:35;;;;;;;37.88;20.33;;;;;;;6.16;80.80;97206.59;10243588;28;20552;-54
2023/03/05 03:36:34;;;;;;;38.45;20.63;;;;;;;6.22;79.97;97195.50;10235009;28;20564;-53
2023/03/05 03:41:33;;;;;;;36.55;18.63;;;;;;;6.23;79.52;97187.75;10206867;28;20035;-53
2023/03/05 03:46:32;;;;;;;36.05;20.65;;;;;;;6.33;80.14;97197.28;10210350;28;20464;-52
2023/03/05 03:51:31;;;;;;;36.80;22.42;;;;;;;6.40;80.28;97201.63;10211112;28;20054;-53
2023/03/05 03:56:30;;;;;;;42.72;25.88;;;;;;;6.43;79.80;97197.34;10210988;28;20093;-53
2023/03/05 04:01:29;;;;;;;46.08;25.10;;;;;;;6.52;79.94;97198.28;10210547;28;20074;-53
2023/03/05 04:06:28;;;;;;;44.92;25.27;;;;;;;6.57;80.77;97194.00;10211186;28;20591;-53
2023/03/05 04:11:27;;;;;;;47.88;25.20;;;;;;;6.66;80.20;97192.34;10209711;28;20030;-54
2023/03/05 04:16:26;;;;;;;42.08;24.20;;;;;;;6.55;80.20;97193.13;10210371;28;20018;-54
2023/03/05 04:21:25;;;;;;;37.13;23.80;;;;;;;6.37;80.80;97159.50;10209842;28;20489;-53
2023/03/05 04:26:24;;;;;;;46.75;26.13;;;;;;;6.59;80.28;97191.44;10209821;28;20046;-53
2023/03/05 04:31:23;;;;;;;42.05;25.40;;;;;;;6.65;80.59;97191.47;10210510;28;20042;-54
2023/03/05 04:36:22;;;;;;;45.88;24.58;;;;;;;6.67;80.03;97196.63;10241866;28;20548;-53
2023/03/05 04:41:21;;;;;;;41.05;21.75;;;;;;;6.60;79.03;97195.72;10208084;28;20519;-53
2023/03/05 04:46:20;;;;;;;42.22;22.40;;;;;;;6.54;79.50;97193.13;10208420;28;20074;-53
2023/03/05 04:51:19;;;;;;;44.40;23.17;;;;;;;6.31;79.11;97147.47;10207976;28;20041;-53
2023/03/05 04:56:18;;;;;;;43.55;23.20;;;;;;;6.56;79.40;97181.09;10209032;28;20070;-54
2023/03/05 05:01:17;;;;;;;44.85;24.45;;;;;;;6.64;79.66;97173.41;10208495;28;20121;-54
2023/03/05 05:06:16;;;;;;;45.92;25.35;;;;;;;6.53;79.00;97157.88;10208621;28;20133;-54
2023/03/05 05:11:15;;;;;;;51.05;26.33;;;;;;;6.53;78.75;97161.31;10207983;28;20412;-54
2023/03/05 05:16:15;;;;;;;64.13;36.22;;;;;;;6.67;79.59;97189.75;10208573;28;20035;-54
2023/03/05 05:21:14;;;;;;;42.90;23.77;;;;;;;6.30;80.03;97191.25;10207523;28;20062;-53
2023/03/05 05:26:14;;;;;;;51.90;27.25;;;;;;;5.91;80.99;97190.97;10207893;28;20078;-54
2023/03/05 05:31:14;;;;;;;91.53;41.33;;;;;;;5.75;81.85;97194.25;10205900;28;20477;-54
2023/03/05 05:36:15;;;;;;;44.70;23.75;;;;;;;5.61;82.49;97194.13;10212562;28;20057;-53
2023/03/05 05:41:16;;;;;;;54.92;28.95;;;;;;;5.78;82.60;97198.56;10244638;28;20068;-53
2023/03/05 05:46:17;;;;;;;44.22;23.98;;;;;;;5.93;82.07;97191.84;10246518;28;20081;-53
2023/03/05 05:51:19;;;;;;;42.38;22.77;;;;;;;5.96;82.09;97214.19;10211585;28;20054;-53
2023/03/05 05:56:19;;;;;;;38.03;20.17;;;;;;;6.20;81.06;97208.34;10206304;28;20123;-53
2023/03/05 06:01:20;;;;;;;53.42;31.67;;;;;;;6.20;80.96;97223.81;10245418;28;20085;-54
2023/03/05 06:06:21;;;;;;;36.85;21.60;;;;;;;6.32;80.41;97229.06;10242871;28;20128;-53
2023/03/05 06:11:21;;;;;;;42.17;22.90;;;;;;;6.39;78.47;97205.06;10241744;28;20058;-54
2023/03/05 06:16:22;;;;;;;45.00;26.20;;;;;;;6.45;78.77;97224.88;10241171;28;20073;-53
2023/03/05 06:21:22;;;;;;;47.90;26.73;;;;;;;6.58;77.18;97234.38;10241792;28;20070;-53
2023/03/05 06:26:21;;;;;;;45.38;26.10;;;;;;;6.20;77.88;97169.72;10242216;28;20072;-53
2023/03/05 06:31:25;;;;;;;43.83;24.23;;;;;;;6.74;77.54;97217.28;10204249;28;20133;-53
2023/03/05 06:36:24;;;;;;;43.30;25.55;;;;;;;7.00;76.79;97225.16;10210583;28;20065;-53
2023/03/05 06:41:28;;;;;;;;;;;;;;;7.31;76.53;97229.56;10243326;28;20062;-53
2023/03/05 06:46:29;;;;;;;44.28;25.05;;;;;;;7.54;75.72;97227.97;10242678;28;20394;-53
2023/03/05 06:51:32;;;;;;;47.95;25.50;;;;;;;7.79;74.78;97228.03;10206136;28;20073;-54
2023/03/05 06:56:31;;;;;;;46.55;27.27;;;;;;;8.00;71.91;97233.22;10203058;28;20073;-53
2023/03/05 07:01:30;;;;;;;49.33;26.42;;;;;;;8.22;71.80;97233.22;10204121;28;20078;-53
2023/03/05 07:06:34;;;;;;;42.08;25.75;;;;;;;8.32;71.23;97245.28;10203497;28;20038;-53
2023/03/05 07:11:33;;;;;;;46.40;25.67;;;;;;;8.29;69.81;97193.56;10201878;28;20082;-53
2023/03/05 07:16:32;;;;;;;;;;;;;;;8.45;68.31;97241.81;10211015;28;20102;-53
2023/03/05 07:21:33;;;;;;;42.97;23.20;;;;;;;8.37;69.21;97191.00;10210464;28;20004;-54
2023/03/05 07:26:32;;;;;;;40.17;23.65;;;;;;;8.04;68.88;97123.84;10215791;28;20082;-53
2023/03/05 07:31:31;;;;;;;;;;;;;;;8.93;68.05;97247.78;10235244;28;20129;-53
2023/03/05 07:36:30;;;;;;;40.75;23.60;;;;;;;9.05;67.95;97243.44;10215805;28;19921;-54
2023/03/05 07:41:29;;;;;;;39.88;21.95;;;;;;;9.17;65.97;97240.78;10214287;28;20512;-53
2023/03/05 07:46:30;;;;;;;;;;;;;;;9.23;64.23;97238.19;10208434;28;20528;-53
2023/03/05 07:51:29;;;;;;;44.95;25.80;;;;;;;9.40;65.00;97245.06;10208480;28;19945;-54
2023/03/05 07:56:30;;;;;;;39.70;23.67;;;;;;;9.19;62.03;97246.84;10208587;28;20102;-54
2023/03/05 08:01:30;;;;;;;41.33;23.95;;;;;;;7.86;63.30;97046.34;10219509;28;20066;-53
2023/03/05 08:06:30;;;;;;;34.47;20.67;;;;;;;9.23;64.17;97243.38;10211152;28;20125;-54
2023/03/05 08:11:29;;;;;;;37.15;19.92;;;;;;;9.61;63.99;97239.78;10218115;28;20066;-54
2023/03/05 08:16:28;;;;;;;30.77;18.52;;;;;;;9.94;59.65;97240.44;10210765;28;20066;-54
2023/03/05 08:21:32;;;;;;;35.55;23.48;;;;;;;9.73;54.95;97193.06;10216416;28;20086;-54
2023/03/05 08:26:33;;;;;;;33.80;18.50;;;;;;;10.18;57.91;97231.59;10209844;28;20070;-54
2023/03/05 08:31:33;;;;;;;33.60;22.20;;;;;;;10.32;57.29;97237.53;10209814;28;20081;-54
2023/03/05 08:36:32;;;;;;;37.85;22.65;;;;;;;10.17;54.86;97240.28;10212793;28;20068;-54
2023/03/05 08:41:31;;;;;;;37.08;21.52;;;;;;;9.97;56.45;97241.25;10218105;28;20062;-54
2023/03/05 08:46:30;;;;;;;34.67;20.90;;;;;;;10.48;57.04;97234.81;10209308;28;20114;-54
2023/03/05 08:51:29;;;;;;;34.03;20.38;;;;;;;11.09;55.15;97233.38;10231949;28;20050;-54
2023/03/05 08:56:30;;;;;;;32.75;19.92;;;;;;;11.43;54.75;97211.31;10207469;28;20105;-54
2023/03/05 09:01:30;;;;;;;32.00;20.00;;;;;;;11.55;53.29;97206.78;10210783;28;20074;-54
2023/03/05 09:06:29;;;;;;;36.30;22.35;;;;;;;11.93;51.42;97198.47;10208431;28;20593;-54
2023/03/05 09:11:28;;;;;;;32.85;21.55;;;;;;;12.22;50.21;97186.72;10205437;28;20548;-54
2023/03/05 09:16:27;;;;;;;41.42;23.05;;;;;;;12.33;49.04;97186.59;10211261;28;20130;-54
2023/03/05 09:21:26;;;;;;;37.13;23.25;;;;;;;12.37;47.89;97183.91;10216683;28;20038;-54
2023/03/05 09:26:25;;;;;;;;;;;;;;;12.52;46.01;97177.56;10219119;28;20505;-55
2023/03/05 09:31:24;;;;;;;35.60;22.15;;;;;;;12.18;44.51;97113.09;10203054;28;19945;-54
2023/03/05 09:36:25;;;;;;;;;;;;;;;12.50;44.01;97163.72;10218245;28;20026;-54
2023/03/05 09:41:54;;;;;;;33.75;20.58;;;;;;;12.46;43.43;97164.66;10207950;28;20431;-54
2023/03/05 09:47:11;;;;;;;28.03;17.87;;;;;;;12.28;42.97;97158.06;10214837;28;20113;-54
2023/03/05 09:52:17;;;;;;;30.30;19.38;;;;;;;11.92;43.18;97146.47;10207086;28;20073;-54
2023/03/05 09:57:20;;;;;;;33.75;21.20;;;;;;;11.66;43.24;97134.75;10214857;28;20186;-54
2023/03/05 10:02:25;;;;;;;37.20;22.83;;;;;;;11.80;44.50;97137.13;10209224;28;20082;-54
2023/03/05 10:07:38;;;;;;;32.15;18.55;;;;;;;12.14;45.52;97136.59;10216720;28;20110;-54
2023/03/05 10:12:42;;;;;;;30.92;19.15;;;;;;;12.51;46.17;97139.44;10203238;28;20119;-54
2023/03/05 10:17:54;;;;;;;28.20;18.70;;;;;;;13.11;44.19;97120.84;10216066;28;20552;-54
2023/03/05 10:23:19;;;;;;;31.52;19.40;;;;;;;13.36;43.37;97104.69;10201629;28;20129;-54
2023/03/05 10:28:34;;;;;;;31.80;19.88;;;;;;;13.81;42.33;97107.13;10209311;28;20125;-54
2023/03/05 10:33:50;;;;;;;32.95;19.02;;;;;;;14.03;41.64;97096.16;10208578;28;20069;-54
2023/03/05 10:39:10;;;;;;;30.73;20.02;;;;;;;13.90;40.53;97085.19;10210428;28;20315;-54
2023/03/05 10:44:26;;;;;;;29.52;19.17;;;;;;;13.81;41.65;97080.22;10210637;28;20223;-54
2023/03/05 10:49:29;;;;;;;30.30;18.42;;;;;;;13.75;42.25;97069.03;10222489;28;20070;-54
2023/03/05 10:54:34;;;;;;;30.10;18.77;;;;;;;13.56;40.24;97065.16;10218608;28;20085;-54
2023/03/05 10:59:33;;;;;;;30.88;19.98;;;;;;;13.54;41.04;97052.19;10212954;28;20138;-54
2023/03/05 11:04:34;;;;;;;;;;;;;;;13.48;40.03;97041.00;10214027;28;20145;-54
2023/03/05 11:09:33;;;;;;;23.40;15.80;;;;;;;13.36;39.25;97036.94;10201473;28;19960;-54
2023/03/05 11:14:33;;;;;;;;;;;;;;;13.40;40.74;97016.84;10200621;28;20055;-54
2023/03/05 11:19:33;;;;;;;22.83;14.10;;;;;;;13.38;39.47;96996.06;10203677;28;19965;-54
2023/03/05 11:24:32;;;;;;;24.00;15.98;;;;;;;13.85;39.44;97012.28;10204840;28;20078;-54
2023/03/05 11:29:33;;;;;;;24.17;16.67;;;;;;;13.82;39.61;96996.72;10210765;28;20078;-54
2023/03/05 11:34:34;;;;;;;24.50;14.63;;;;;;;14.28;38.25;96979.81;10205397;28;20070;-54
2023/03/05 11:39:37;;;;;;;26.27;15.63;;;;;;;14.22;37.44;96925.22;10210076;28;20141;-52
2023/03/05 11:44:49;;;;;;;24.48;13.93;;;;;;;14.70;37.69;96962.94;10196304;28;20129;-52
2023/03/05 11:49:53;;;;;;;24.45;14.98;;;;;;;14.59;35.91;96931.94;10197222;28;20138;-54
2023/03/05 11:55:10;;;;;;;25.60;15.73;;;;;;;14.60;33.88;96942.34;10195381;28;20098;-52
2023/03/05 12:00:16;;;;;;;23.77;14.10;;;;;;;14.78;35.79;96934.84;10195902;28;20130;-52
2023/03/05 12:05:16;;;;;;;23.92;15.70;;;;;;;14.54;34.39;96884.22;10204230;28;20153;-51
2023/03/05 12:10:21;;;;;;;25.85;16.50;;;;;;;14.71;35.13;96921.16;10205949;28;20501;-52
2023/03/05 12:15:33;;;;;;;22.60;15.88;;;;;;;14.49;33.65;96918.31;10204986;28;20071;-52
2023/03/05 12:21:06;;;;;;;34.03;19.23;;;;;;;14.24;33.15;96907.75;10205438;28;20073;-52
2023/03/05 12:26:04;;;;;;;31.23;19.25;;;;;;;14.29;34.02;96903.25;10244428;28;20138;-52
2023/03/05 12:31:25;;;;;;;22.98;15.10;;;;;;;14.43;34.91;96907.19;10245193;28;20530;-51
2023/03/05 12:36:35;;;;;;;21.55;13.40;;;;;;;14.55;34.55;96906.84;10237395;28;20137;-52
2023/03/05 12:41:35;;;;;;;25.15;15.35;;;;;;;14.51;33.00;96889.53;10204237;28;20070;-52
2023/03/05 12:46:56;;;;;;;24.27;13.45;;;;;;;14.28;32.04;96891.09;10205365;28;20130;-52
2023/03/05 12:51:57;;;;;;;21.88;13.95;;;;;;;13.65;33.25;96838.13;10203566;28;20085;-53
2023/03/05 12:57:18;;;;;;;23.85;14.20;;;;;;;13.54;34.32;96881.91;10204041;28;20062;-52
2023/03/05 13:02:38;;;;;;;20.60;13.48;;;;;;;13.14;35.36;96888.97;10204118;28;20081;-52
2023/03/05 13:07:37;;;;;;;19.92;12.93;;;;;;;13.03;36.27;96893.56;10204312;28;20578;-52
2023/03/05 13:12:37;;;;;;;;;;;;;;;13.16;35.77;96883.69;10202348;28;20270;-51
2023/03/05 13:17:55;;;;;;;25.27;15.52;;;;;;;13.49;36.45;96873.28;10243053;28;19960;-52
2023/03/05 13:23:17;;;;;;;23.35;15.07;;;;;;;13.46;34.83;96871.63;10243256;28;20068;-52
2023/03/05 13:28:16;;;;;;;29.42;18.52;;;;;;;13.46;37.15;96869.00;10202646;28;20446;-52
2023/03/05 13:33:17;;;;;;;;;;;;;;;13.65;37.69;96877.22;10202449;28;20421;-52
2023/03/05 13:38:32;;;;;;;22.67;14.20;;;;;;;13.63;35.99;96862.50;10224124;28;19965;-52
2023/03/05 13:43:31;;;;;;;20.98;13.15;;;;;;;13.61;37.15;96877.34;10240699;28;20077;-52
2023/03/05 13:48:31;;;;;;;20.75;14.00;;;;;;;13.29;37.96;96816.50;10227452;28;20085;-53
2023/03/05 13:53:30;;;;;;;19.35;12.13;;;;;;;13.60;37.56;96860.84;10202192;28;20062;-52
2023/03/05 13:58:55;;;;;;;28.52;16.92;;;;;;;13.53;36.35;96867.09;10201097;28;20122;-52
2023/03/05 14:03:57;;;;;;;25.05;15.88;;;;;;;13.01;37.59;96830.25;10201953;28;20066;-52
2023/03/05 14:09:07;;;;;;;22.27;14.00;;;;;;;13.21;38.11;96871.44;10201065;28;20627;-52
2023/03/05 14:14:16;;;;;;;21.63;13.75;;;;;;;13.07;38.84;96878.69;10200546;28;20094;-52
2023/03/05 14:19:33;;;;;;;23.17;14.40;;;;;;;12.67;38.29;96840.63;10200279;28;20493;-52
2023/03/05 14:24:32;;;;;;;23.13;13.80;;;;;;;12.82;39.08;96876.72;10201336;28;20177;-52
2023/03/05 14:29:32;;;;;;;27.38;15.00;;;;;;;12.76;38.80;96869.03;10200303;28;20114;-52
2023/03/05 14:34:37;;;;;;;27.63;16.42;;;;;;;12.65;37.67;96866.72;10239617;28;20073;-52
2023/03/05 14:39:48;;;;;;;24.30;15.35;;;;;;;12.48;38.65;96853.22;10208457;28;20087;-52
2023/03/05 14:44:47;;;;;;;25.38;14.50;;;;;;;12.43;38.28;96865.47;10201086;28;20089;-52
2023/03/05 14:49:46;;;;;;;;;;;;;;;12.34;37.39;96861.34;10200874;28;20524;-52
2023/03/05 14:54:46;;;;;;;30.60;18.10;;;;;;;11.86;37.20;96792.13;10200261;28;20543;-53
2023/03/05 14:59:45;;;;;;;27.52;17.60;;;;;;;12.12;37.43;96855.72;10209080;28;20125;-52
2023/03/05 15:04:45;;;;;;;;;;;;;;;11.88;37.46;96867.50;10238320;28;20080;-52
2023/03/05 15:09:44;;;;;;;38.15;21.48;;;;;;;11.21;39.89;96869.63;10236739;28;19988;-52
2023/03/05 15:14:43;;;;;;;;;;;;;;;11.10;41.22;96874.16;10239196;28;20074;-52
2023/03/05 15:19:42;;;;;;;42.77;24.27;;;;;;;9.85;42.89;96798.22;10210847;28;20106;-52
2023/03/05 15:24:41;;;;;;;;;;;;;;;9.84;42.65;96887.22;10220084;28;20407;-51
2023/03/05 15:29:40;;;;;;;30.27;18.35;;;;;;;9.53;42.59;96864.22;10182287;28;20017;-51
2023/03/05 15:34:39;;;;;;;30.00;17.40;;;;;;;9.61;42.99;96884.88;10209522;28;20081;-52
2023/03/05 15:39:38;;;;;;;26.27;18.38;;;;;;;9.38;43.71;96886.88;10189995;28;20048;-52
2023/03/05 15:44:38;;;;;;;26.50;17.60;;;;;;;9.20;43.71;96891.31;10218126;28;20034;-52
2023/03/05 15:49:37;;;;;;;29.92;16.45;;;;;;;8.92;44.10;96880.34;10221755;28;20165;-52
2023/03/05 15:54:36;;;;;;;24.80;14.50;;;;;;;8.93;44.25;96897.59;10206444;28;20475;-52
2023/03/05 15:59:36;;;;;;;30.00;16.83;;;;;;;8.94;44.61;96907.91;10223747;28;20061;-51
2023/03/05 16:04:35;;;;;;;20.73;13.25;;;;;;;8.97;43.78;96903.59;10207006;28;20063;-52
2023/03/05 16:09:37;;;;;;;27.15;17.08;;;;;;;8.92;44.80;96916.56;10207356;28;20042;-52
2023/03/05 16:14:39;;;;;;;24.23;15.38;;;;;;;8.84;44.32;96919.22;10205449;28;20515;-51
2023/03/05 16:19:43;;;;;;;20.60;13.77;;;;;;;8.78;44.83;96919.25;10204786;28;20423;-51
2023/03/05 16:24:41;;;;;;;33.78;19.33;;;;;;;8.41;44.68;96898.84;10208529;28;20062;-52
2023/03/05 16:29:40;;;;;;;25.42;15.68;;;;;;;8.56;45.11;96933.22;10207337;28;20038;-52
2023/03/05 16:34:39;;;;;;;24.52;15.48;;;;;;;8.48;45.38;96916.03;10206417;28;20069;-52
2023/03/05 16:39:39;;;;;;;28.13;17.13;;;;;;;8.56;44.74;96944.41;10209654;28;20078;-52
2023/03/05 16:44:40;;;;;;;22.27;13.70;;;;;;;8.34;44.79;96947.97;10204755;28;20074;-52
2023/03/05 16:49:39;;;;;;;22.73;12.60;;;;;;;8.14;45.11;96940.34;10211945;28;20123;-51
2023/03/05 16:54:40;;;;;;;;;;;;;;;8.25;45.34;96954.06;10205338;28;20491;-52
2023/03/05 16:59:39;;;;;;;19.70;12.85;;;;;;;7.91;45.65;96953.34;10206224;28;19953;-51
2023/03/05 17:04:38;;;;;;;22.70;14.02;;;;;;;7.78;45.55;96966.31;10205028;28;20077;-51
2023/03/05 17:09:37;;;;;;;20.40;13.35;;;;;;;7.80;46.14;96971.44;10211649;28;20026;-51
2023/03/05 17:14:36;;;;;;;19.83;11.70;;;;;;;7.70;45.62;96970.63;10201955;28;20145;-51
2023/03/05 17:19:35;;;;;;;23.90;15.43;;;;;;;7.55;45.64;96930.19;10211882;28;20043;-52
2023/03/05 17:24:35;;;;;;;24.00;13.75;;;;;;;7.77;45.40;96981.78;10204000;28;20490;-52
2023/03/05 17:29:34;;;;;;;21.35;13.38;;;;;;;7.69;45.73;96986.13;10213492;28;20085;-52
2023/03/05 17:34:34;;;;;;;;;;;;;;;7.52;45.95;96994.75;10207133;28;20066;-52
2023/03/05 17:39:33;;;;;;;;;;;;;;;7.38;46.54;96992.16;10209639;28;19957;-52
2023/03/05 17:44:32;;;;;;;22.27;14.60;;;;;;;7.53;47.11;96999.06;10201546;28;19913;-51
2023/03/05 17:49:31;;;;;;;24.35;15.43;;;;;;;7.63;46.88;96999.88;10202766;28;20034;-51
2023/03/05 17:54:30;;;;;;;21.90;14.70;;;;;;;7.23;46.30;96958.59;10199590;28;20034;-53
2023/03/05 17:59:29;;;;;;;19.33;11.38;;;;;;;7.57;46.54;97005.94;10207232;28;20118;-49
2023/03/05 18:04:28;;;;;;;19.40;13.52;;;;;;;7.54;47.25;96990.44;10199860;28;20310;-52
2023/03/05 18:09:27;;;;;;;22.05;14.73;;;;;;;7.36;47.01;96990.44;10206310;28;20716;-52
2023/03/05 18:14:26;;;;;;;24.85;15.93;;;;;;;7.32;47.47;97009.38;10200018;28;20125;-51
2023/03/05 18:19:25;;;;;;;26.65;17.45;;;;;;;7.15;46.95;97014.53;10209197;28;20030;-51
2023/03/05 18:24:24;;;;;;;;;;;;;;;7.08;47.37;97013.66;10201159;28;20467;-51
2023/03/05 18:29:23;;;;;;;25.45;15.98;;;;;;;7.01;47.37;97015.38;10207747;28;20013;-52
2023/03/05 18:34:24;;;;;;;25.52;16.50;;;;;;;6.82;48.26;97035.13;10200631;28;20035;-51
2023/03/05 18:39:22;;;;;;;24.52;14.98;;;;;;;6.75;48.61;97030.81;10209793;28;20062;-53
2023/03/05 18:44:21;;;;;;;25.42;15.75;;;;;;;6.66;48.63;97028.19;10200964;28;20457;-50
2023/03/05 18:49:20;;;;;;;26.67;15.80;;;;;;;6.60;48.46;97030.75;10228992;28;20134;-52
2023/03/05 18:54:19;;;;;;;25.30;14.00;;;;;;;6.55;49.10;97041.03;10197843;28;20038;-51
2023/03/05 18:59:18;;;;;;;29.10;16.80;;;;;;;6.35;49.00;97038.41;10213159;28;20029;-51
2023/03/05 19:04:17;;;;;;;26.90;16.92;;;;;;;6.30;49.85;97047.81;10210407;28;20034;-52
2023/03/05 19:09:52;;;;;;;26.83;16.80;;;;;;;6.24;49.56;97052.94;10201187;28;20983;-52
2023/03/05 19:14:51;;;;;;;24.30;15.27;;;;;;;6.07;49.46;97052.00;10210112;28;20122;-51
2023/03/05 19:19:51;;;;;;;28.33;17.83;;;;;;;6.03;50.37;97039.97;10210423;28;20508;-52
2023/03/05 19:24:51;;;;;;;32.00;18.33;;;;;;;6.08;49.63;97049.44;10217209;28;20123;-52
2023/03/05 19:29:50;;;;;;;28.95;17.20;;;;;;;5.98;49.94;97051.09;10217658;28;20130;-52
2023/03/05 19:34:49;;;;;;;32.38;19.73;;;;;;;6.05;49.55;97056.28;10206969;28;20121;-52
2023/03/05 19:39:48;;;;;;;36.90;24.25;;;;;;;5.86;50.56;97055.28;10214260;28;20106;-52
2023/03/05 19:44:47;;;;;;;35.47;21.65;;;;;;;5.79;50.64;97051.84;10216896;28;20061;-52
2023/03/05 19:49:46;;;;;;;;;;;;;;;5.79;50.85;97046.69;10211316;28;20066;-52
2023/03/05 19:54:45;;;;;;;40.03;25.10;;;;;;;5.69;52.25;97066.34;10204104;28;20020;-52
2023/03/05 19:59:45;;;;;;;40.55;25.20;;;;;;;5.43;52.82;97037.00;10208243;28;20026;-52
2023/03/05 20:04:44;;;;;;;39.60;23.38;;;;;;;5.42;53.98;97049.00;10216424;28;20478;-52
2023/03/05 20:09:43;;;;;;;45.88;26.70;;;;;;;5.23;54.39;97054.84;10207924;28;20473;-53
2023/03/05 20:14:42;;;;;;;46.35;24.48;;;;;;;5.09;54.94;97068.44;10216882;28;20492;-53
2023/03/05 20:19:41;;;;;;;36.35;21.60;;;;;;;4.98;55.66;97056.34;10208218;28;20069;-53
2023/03/05 20:24:40;;;;;;;;;;;;;;;4.87;55.71;97056.19;10215232;28;20113;-53
2023/03/05 20:29:39;;;;;;;31.45;19.20;;;;;;;3.95;55.75;96927.59;10203506;28;19922;-53
2023/03/05 20:34:38;;;;;;;39.95;24.10;;;;;;;4.66;56.42;97075.66;10217225;28;20026;-54
2023/03/05 20:39:37;;;;;;;56.40;31.23;;;;;;;4.47;57.03;97073.72;10216767;28;20035;-53
2023/03/05 20:44:36;;;;;;;46.15;26.80;;;;;;;4.37;57.57;97074.47;10217156;28;20027;-53
2023/03/05 20:49:35;;;;;;;38.38;23.80;;;;;;;4.23;57.96;97076.88;10206090;28;20049;-53
2023/03/05 20:54:34;;;;;;;37.78;23.50;;;;;;;4.15;58.22;97069.06;10215988;28;20667;-53
2023/03/05 20:59:32;;;;;;;44.33;26.67;;;;;;;4.07;58.72;97071.50;10212079;28;20521;-53
2023/03/05 21:04:31;;;;;;;45.22;26.25;;;;;;;3.97;58.97;97064.53;10216532;28;20027;-53
2023/03/05 21:09:30;;;;;;;43.67;24.92;;;;;;;3.90;59.54;97061.88;10206865;28;20155;-53
2023/03/05 21:14:36;;;;;;;40.63;24.33;;;;;;;3.68;60.60;97066.66;10206364;28;20046;-53
2023/03/05 21:19:36;;;;;;;38.00;23.80;;;;;;;3.60;61.29;97069.13;10203582;28;20536;-53
2023/03/05 21:25:15;;;;;;;36.92;24.10;;;;;;;3.60;61.26;97070.84;10215557;28;20066;-53
2023/03/05 21:30:16;;;;;;;34.85;21.98;;;;;;;3.52;61.93;97064.72;10208140;28;20564;-53
2023/03/05 21:35:17;;;;;;;39.58;23.90;;;;;;;3.48;61.80;97068.09;10216066;28;20517;-53
2023/03/05 21:40:17;;;;;;;33.15;19.85;;;;;;;3.37;62.99;97062.78;10204330;28;20121;-53
2023/03/05 21:45:19;;;;;;;37.20;22.58;;;;;;;3.35;62.74;97057.63;10215671;28;20070;-53
2023/03/05 21:50:19;;;;;;;58.55;32.85;;;;;;;3.12;64.32;97039.31;10207280;28;20122;-53
2023/03/05 21:55:29;;;;;;;50.45;31.75;;;;;;;2.91;65.77;97034.69;10224387;28;20066;-53
2023/03/05 22:00:28;;;;;;;;;;;;;;;2.80;67.42;97060.09;10206618;28;20480;-52
2023/03/05 22:05:27;;;;;;;54.80;30.98;;;;;;;2.24;67.10;97000.16;10214781;28;20277;-52
2023/03/05 22:10:26;;;;;;;47.58;30.15;;;;;;;2.58;67.54;97071.66;10206091;28;20035;-51
2023/03/05 22:15:25;;;;;;;50.95;30.88;;;;;;;2.61;67.68;97080.25;10214571;28;20165;-52
2023/03/05 22:20:25;;;;;;;44.08;27.95;;;;;;;2.63;66.92;97078.56;10205171;28;20054;-52
2023/03/05 22:25:23;;;;;;;48.53;29.33;;;;;;;2.64;67.37;97080.28;10223031;28;20499;-52
2023/03/05 22:30:22;;;;;;;56.20;33.85;;;;;;;2.66;66.96;97078.63;10205031;28;20505;-51
2023/03/05 22:35:21;;;;;;;52.20;32.05;;;;;;;2.72;67.23;97081.28;10212260;28;20449;-52
2023/03/05 22:40:21;;;;;;;53.30;33.20;;;;;;;2.67;67.56;97086.31;10207584;28;20022;-52
2023/03/05 22:45:20;;;;;;;55.03;32.40;;;;;;;2.68;67.44;97088.06;10213522;28;20161;-53
2023/03/05 22:50:19;;;;;;;53.65;30.55;;;;;;;2.75;67.55;97086.50;10204158;28;20419;-52
2023/03/05 22:55:18;;;;;;;55.85;31.77;;;;;;;2.73;68.09;97073.66;10212585;28;20497;-53
2023/03/05 23:00:25;;;;;;;69.15;37.63;;;;;;;2.74;68.70;97077.91;10204427;28;20493;-52
2023/03/05 23:05:24;;;;;;;63.13;35.90;;;;;;;2.78;68.59;97078.84;10213450;28;20059;-52
2023/03/05 23:10:25;;;;;;;65.20;38.85;;;;;;;2.58;68.66;97061.41;10204467;28;20023;-53
2023/03/05 23:15:34;;;;;;;66.18;40.15;;;;;;;2.61;69.24;97087.94;10207624;28;20142;-52